createdAt,value
2022-12-18T00:00:04.749Z,960.94
2022-12-18T00:00:16.772Z,960.94
2022-12-18T00:00:28.759Z,960.94
2022-12-18T00:00:40.779Z,960.94
2022-12-18T00:00:51.788Z,960.94
2022-12-18T00:01:03.779Z,960.94
2022-12-18T00:01:15.825Z,960.94
2022-12-18T00:01:27.822Z,960.95
2022-12-18T00:01:38.818Z,960.95
2022-12-18T00:01:49.862Z,960.95
2022-12-18T00:02:01.840Z,960.96
2022-12-18T00:02:13.784Z,960.96
2022-12-18T00:02:25.806Z,960.96
2022-12-18T00:02:37.966Z,960.96
2022-12-18T00:02:48.939Z,960.97
2022-12-18T00:03:00.911Z,960.97
2022-12-18T00:03:11.848Z,960.97
2022-12-18T00:03:22.864Z,960.97
2022-12-18T00:03:33.843Z,960.97
2022-12-18T00:03:45.447Z,960.98
2022-12-18T00:03:56.940Z,960.97
2022-12-18T00:04:09.021Z,960.97
2022-12-18T00:04:20.159Z,960.97
2022-12-18T00:04:31.870Z,960.97
2022-12-18T00:04:43.810Z,960.97
2022-12-18T00:04:55.811Z,960.97
2022-12-18T00:05:07.812Z,960.97
2022-12-18T00:05:19.828Z,960.96
2022-12-18T00:05:30.779Z,960.96
2022-12-18T00:05:42.796Z,960.95
2022-12-18T00:05:54.799Z,960.95
2022-12-18T00:06:06.800Z,960.95
2022-12-18T00:06:18.791Z,960.94
2022-12-18T00:06:29.753Z,960.94
2022-12-18T00:06:41.776Z,960.94
2022-12-18T00:06:53.810Z,960.93
2022-12-18T00:07:04.754Z,960.93
2022-12-18T00:07:16.764Z,960.93
2022-12-18T00:07:28.780Z,960.92
2022-12-18T00:07:40.783Z,960.92
2022-12-18T00:07:52.780Z,960.92
2022-12-18T00:08:04.777Z,960.92
2022-12-18T00:08:16.777Z,960.92
2022-12-18T00:08:28.792Z,960.91
2022-12-18T00:08:39.771Z,960.92
2022-12-18T00:08:51.782Z,960.91
2022-12-18T00:09:03.793Z,960.92
2022-12-18T00:09:15.759Z,960.92
2022-12-18T00:09:31.322Z,960.92
2022-12-18T00:09:40.646Z,960.92
2022-12-18T00:09:49.822Z,960.93
2022-12-18T00:10:01.735Z,960.92
2022-12-18T00:10:15.286Z,960.92
2022-12-18T00:10:24.773Z,960.92
2022-12-18T00:10:36.786Z,960.93
2022-12-18T00:10:48.790Z,960.92
2022-12-18T00:11:01.595Z,960.93
2022-12-18T00:11:13.792Z,960.92
2022-12-18T00:11:23.753Z,960.93
2022-12-18T00:11:35.792Z,960.92
2022-12-18T00:11:47.801Z,960.92
2022-12-18T00:11:59.805Z,960.92
2022-12-18T00:12:23.823Z,960.92
2022-12-18T00:12:35.819Z,960.93
2022-12-18T00:12:47.825Z,960.92
2022-12-18T00:13:02.585Z,960.92
2022-12-18T00:13:11.720Z,960.92
2022-12-18T00:13:21.820Z,960.92
2022-12-18T00:13:33.819Z,960.92
2022-12-18T00:13:45.819Z,960.93
2022-12-18T00:13:57.712Z,960.93
2022-12-18T00:14:08.803Z,960.92
2022-12-18T00:14:20.804Z,960.93
2022-12-18T00:14:31.773Z,960.93
2022-12-18T00:14:43.779Z,960.94
2022-12-18T00:14:55.782Z,960.94
2022-12-18T00:15:07.764Z,960.95
2022-12-18T00:15:19.800Z,960.95
2022-12-18T00:15:31.813Z,960.96
2022-12-18T00:15:43.852Z,960.97
2022-12-18T00:15:56.601Z,960.98
2022-12-18T00:16:07.827Z,960.99
2022-12-18T00:16:19.818Z,960.99
2022-12-18T00:16:31.817Z,961.00
2022-12-18T00:16:43.756Z,961.00
2022-12-18T00:16:55.752Z,961.01
2022-12-18T00:17:06.821Z,961.01
2022-12-18T00:17:18.785Z,961.02
2022-12-18T00:17:30.780Z,961.02
2022-12-18T00:17:41.777Z,961.02
2022-12-18T00:17:53.779Z,961.03
2022-12-18T00:18:05.793Z,961.03
2022-12-18T00:18:20.735Z,961.03
2022-12-18T00:18:29.777Z,961.03
2022-12-18T00:18:41.101Z,961.03
2022-12-18T00:18:51.783Z,961.03
2022-12-18T00:19:02.750Z,961.04
2022-12-18T00:19:13.727Z,961.04
2022-12-18T00:19:24.809Z,961.03
2022-12-18T00:19:36.813Z,961.04
2022-12-18T00:19:48.815Z,961.03
2022-12-18T00:20:00.727Z,961.04
2022-12-18T00:20:11.813Z,961.03
2022-12-18T00:20:23.817Z,961.03
2022-12-18T00:20:35.820Z,961.03
2022-12-18T00:20:47.775Z,961.03
2022-12-18T00:20:59.777Z,961.03
2022-12-18T00:21:11.779Z,961.02
2022-12-18T00:21:23.778Z,961.02
2022-12-18T00:21:35.778Z,961.02
2022-12-18T00:21:47.779Z,961.02
2022-12-18T00:21:59.784Z,961.02
2022-12-18T00:22:11.794Z,961.02
2022-12-18T00:22:23.784Z,961.02
2022-12-18T00:22:35.808Z,961.02
2022-12-18T00:22:47.817Z,961.02
2022-12-18T00:22:59.760Z,961.03
2022-12-18T00:23:11.786Z,961.03
2022-12-18T00:23:22.758Z,961.03
2022-12-18T00:23:34.966Z,961.04
2022-12-18T00:23:46.757Z,961.04
2022-12-18T00:23:58.761Z,961.04
2022-12-18T00:24:10.775Z,961.04
2022-12-18T00:24:22.771Z,961.05
2022-12-18T00:24:34.778Z,961.05
2022-12-18T00:24:46.772Z,961.05
2022-12-18T00:24:57.737Z,961.05
2022-12-18T00:25:08.783Z,961.05
2022-12-18T00:25:20.790Z,961.06
2022-12-18T00:25:32.801Z,961.06
2022-12-18T00:25:44.801Z,961.07
2022-12-18T00:25:56.801Z,961.07
2022-12-18T00:26:08.811Z,961.07
2022-12-18T00:26:20.734Z,961.07
2022-12-18T00:26:32.748Z,961.08
2022-12-18T00:26:44.755Z,961.08
2022-12-18T00:26:56.766Z,961.08
2022-12-18T00:27:08.778Z,961.08
2022-12-18T00:27:20.773Z,961.08
2022-12-18T00:27:32.780Z,961.09
2022-12-18T00:27:44.794Z,961.09
2022-12-18T00:27:56.800Z,961.09
2022-12-18T00:28:08.804Z,961.09
2022-12-18T00:28:19.781Z,961.09
2022-12-18T00:28:31.795Z,961.10
2022-12-18T00:28:43.806Z,961.10
2022-12-18T00:28:55.820Z,961.11
2022-12-18T00:29:07.820Z,961.11
2022-12-18T00:29:19.822Z,961.11
2022-12-18T00:29:31.814Z,961.12
2022-12-18T00:29:43.821Z,961.12
2022-12-18T00:29:55.718Z,961.12
2022-12-18T00:30:06.795Z,961.13
2022-12-18T00:30:18.814Z,961.13
2022-12-18T00:30:30.724Z,961.14
2022-12-18T00:30:41.829Z,961.14
2022-12-18T00:30:53.721Z,961.14
2022-12-18T00:31:04.825Z,961.15
2022-12-18T00:31:16.852Z,961.15
2022-12-18T00:31:28.834Z,961.15
2022-12-18T00:31:40.872Z,961.16
2022-12-18T00:31:51.799Z,961.17
2022-12-18T00:32:02.916Z,961.17
2022-12-18T00:32:14.823Z,961.16
2022-12-18T00:32:26.725Z,961.17
2022-12-18T00:32:37.781Z,961.17
2022-12-18T00:32:49.778Z,961.18
2022-12-18T00:33:00.734Z,961.17
2022-12-18T00:33:11.794Z,961.17
2022-12-18T00:33:23.804Z,961.18
2022-12-18T00:33:35.994Z,961.18
2022-12-18T00:33:47.743Z,961.18
2022-12-18T00:33:59.754Z,961.18
2022-12-18T00:34:11.760Z,961.18
2022-12-18T00:34:22.826Z,961.18
2022-12-18T00:34:34.725Z,961.18
2022-12-18T00:34:45.805Z,961.18
2022-12-18T00:34:57.812Z,961.18
2022-12-18T00:35:09.799Z,961.18
2022-12-18T00:35:21.818Z,961.18
2022-12-18T00:35:33.820Z,961.18
2022-12-18T00:35:44.787Z,961.18
2022-12-18T00:35:55.740Z,961.18
2022-12-18T00:36:06.776Z,961.18
2022-12-18T00:36:18.780Z,961.18
2022-12-18T00:36:30.780Z,961.18
2022-12-18T00:36:42.782Z,961.18
2022-12-18T00:36:54.783Z,961.18
2022-12-18T00:37:06.795Z,961.18
2022-12-18T00:37:20.189Z,961.18
2022-12-18T00:37:29.750Z,961.18
2022-12-18T00:37:40.773Z,961.18
2022-12-18T00:37:52.773Z,961.17
2022-12-18T00:38:04.775Z,961.17
2022-12-18T00:38:16.794Z,961.17
2022-12-18T00:38:27.752Z,961.16
2022-12-18T00:38:38.756Z,961.16
2022-12-18T00:38:50.773Z,961.16
2022-12-18T00:39:02.775Z,961.16
2022-12-18T00:39:13.719Z,961.16
2022-12-18T00:39:24.794Z,961.16
2022-12-18T00:39:35.755Z,961.16
2022-12-18T00:39:47.763Z,961.15
2022-12-18T00:39:59.760Z,961.15
2022-12-18T00:40:11.737Z,961.16
2022-12-18T00:40:22.762Z,961.16
2022-12-18T00:40:34.761Z,961.15
2022-12-18T00:40:46.762Z,961.15
2022-12-18T00:40:58.761Z,961.16
2022-12-18T00:41:10.760Z,961.16
2022-12-18T00:41:22.770Z,961.16
2022-12-18T00:41:34.776Z,961.16
2022-12-18T00:41:47.583Z,961.16
2022-12-18T00:41:58.770Z,961.17
2022-12-18T00:42:10.778Z,961.17
2022-12-18T00:42:22.779Z,961.18
2022-12-18T00:42:34.796Z,961.18
2022-12-18T00:42:46.796Z,961.18
2022-12-18T00:42:58.803Z,961.19
2022-12-18T00:43:10.813Z,961.20
2022-12-18T00:43:22.819Z,961.19
2022-12-18T00:43:33.783Z,961.20
2022-12-18T00:43:44.737Z,961.21
2022-12-18T00:43:55.779Z,961.21
2022-12-18T00:44:07.787Z,961.22
2022-12-18T00:44:19.803Z,961.22
2022-12-18T00:44:31.757Z,961.23
2022-12-18T00:44:43.767Z,961.24
2022-12-18T00:44:54.741Z,961.24
2022-12-18T00:45:12.277Z,961.24
2022-12-18T00:45:18.743Z,961.25
2022-12-18T00:45:28.883Z,961.25
2022-12-18T00:45:40.791Z,961.26
2022-12-18T00:45:51.779Z,961.26
2022-12-18T00:46:02.793Z,961.26
2022-12-18T00:46:14.773Z,961.26
2022-12-18T00:46:25.752Z,961.27
2022-12-18T00:46:37.764Z,961.27
2022-12-18T00:46:49.774Z,961.28
2022-12-18T00:47:01.772Z,961.28
2022-12-18T00:47:12.752Z,961.29
2022-12-18T00:47:24.760Z,961.29
2022-12-18T00:47:36.759Z,961.29
2022-12-18T00:47:48.762Z,961.29
2022-12-18T00:48:00.764Z,961.30
2022-12-18T00:48:12.764Z,961.29
2022-12-18T00:48:23.743Z,961.30
2022-12-18T00:48:35.748Z,961.30
2022-12-18T00:48:47.763Z,961.30
2022-12-18T00:48:59.761Z,961.30
2022-12-18T00:49:11.762Z,961.30
2022-12-18T00:49:23.798Z,961.30
2022-12-18T00:49:34.742Z,961.30
2022-12-18T00:49:46.744Z,961.30
2022-12-18T00:49:58.750Z,961.30
2022-12-18T00:50:10.759Z,961.29
2022-12-18T00:50:22.756Z,961.29
2022-12-18T00:50:34.771Z,961.29
2022-12-18T00:50:46.759Z,961.29
2022-12-18T00:50:58.783Z,961.29
2022-12-18T00:51:10.786Z,961.29
2022-12-18T00:51:22.773Z,961.29
2022-12-18T00:51:34.789Z,961.29
2022-12-18T00:51:46.780Z,961.29
2022-12-18T00:51:58.800Z,961.29
2022-12-18T00:52:10.801Z,961.28
2022-12-18T00:52:21.761Z,961.28
2022-12-18T00:52:33.766Z,961.28
2022-12-18T00:52:45.765Z,961.27
2022-12-18T00:52:57.768Z,961.27
2022-12-18T00:53:09.770Z,961.27
2022-12-18T00:53:21.778Z,961.26
2022-12-18T00:53:33.792Z,961.26
2022-12-18T00:53:45.800Z,961.26
2022-12-18T00:53:57.804Z,961.25
2022-12-18T00:54:09.810Z,961.25
2022-12-18T00:54:21.811Z,961.25
2022-12-18T00:54:33.807Z,961.24
2022-12-18T00:54:45.739Z,961.24
2022-12-18T00:54:58.101Z,961.24
2022-12-18T00:55:08.762Z,961.23
2022-12-18T00:55:20.765Z,961.23
2022-12-18T00:55:32.762Z,961.23
2022-12-18T00:55:44.761Z,961.23
2022-12-18T00:55:56.774Z,961.23
2022-12-18T00:56:08.770Z,961.23
2022-12-18T00:56:20.782Z,961.23
2022-12-18T00:56:32.785Z,961.23
2022-12-18T00:56:49.454Z,961.23
2022-12-18T00:56:55.726Z,961.23
2022-12-18T00:57:05.733Z,961.23
2022-12-18T00:57:16.760Z,961.23
2022-12-18T00:57:28.765Z,961.23
2022-12-18T00:57:40.764Z,961.23
2022-12-18T00:57:51.760Z,961.22
2022-12-18T00:58:02.811Z,961.22
2022-12-18T00:58:14.760Z,961.22
2022-12-18T00:58:26.765Z,961.22
2022-12-18T00:58:37.742Z,961.22
2022-12-18T00:58:48.780Z,961.22
2022-12-18T00:59:00.791Z,961.22
2022-12-18T00:59:12.777Z,961.22
2022-12-18T00:59:24.800Z,961.22
2022-12-18T00:59:36.802Z,961.22
2022-12-18T00:59:48.815Z,961.22
2022-12-18T01:00:00.820Z,961.22
2022-12-18T01:00:12.820Z,961.22
2022-12-18T01:00:24.833Z,961.22
2022-12-18T01:00:36.818Z,961.22
2022-12-18T01:00:47.845Z,961.21
2022-12-18T01:00:59.799Z,961.21
2022-12-18T01:01:10.840Z,961.21
2022-12-18T01:01:22.937Z,961.21
2022-12-18T01:01:33.906Z,961.21
2022-12-18T01:01:46.068Z,961.21
2022-12-18T01:01:56.842Z,961.20
2022-12-18T01:02:08.889Z,961.21
2022-12-18T01:02:19.848Z,961.21
2022-12-18T01:02:30.892Z,961.21
2022-12-18T01:02:42.914Z,961.21
2022-12-18T01:02:53.885Z,961.21
2022-12-18T01:03:04.808Z,961.21
2022-12-18T01:03:15.875Z,961.22
2022-12-18T01:03:26.779Z,961.22
2022-12-18T01:03:39.198Z,961.23
2022-12-18T01:03:50.808Z,961.23
2022-12-18T01:04:01.776Z,961.24
2022-12-18T01:04:13.821Z,961.24
2022-12-18T01:04:24.760Z,961.25
2022-12-18T01:04:36.773Z,961.25
2022-12-18T01:04:48.783Z,961.26
2022-12-18T01:05:00.787Z,961.26
2022-12-18T01:05:12.796Z,961.27
2022-12-18T01:05:24.827Z,961.27
2022-12-18T01:05:35.779Z,961.28
2022-12-18T01:05:47.774Z,961.28
2022-12-18T01:05:59.783Z,961.29
2022-12-18T01:06:11.787Z,961.29
2022-12-18T01:06:23.805Z,961.30
2022-12-18T01:06:35.764Z,961.30
2022-12-18T01:06:47.771Z,961.30
2022-12-18T01:06:59.774Z,961.31
2022-12-18T01:07:11.776Z,961.31
2022-12-18T01:07:23.775Z,961.31
2022-12-18T01:07:35.799Z,961.31
2022-12-18T01:07:47.795Z,961.31
2022-12-18T01:07:58.751Z,961.32
2022-12-18T01:08:10.750Z,961.32
2022-12-18T01:08:22.764Z,961.32
2022-12-18T01:08:33.724Z,961.32
2022-12-18T01:08:44.772Z,961.32
2022-12-18T01:08:56.795Z,961.32
2022-12-18T01:09:08.794Z,961.32
2022-12-18T01:09:20.797Z,961.32
2022-12-18T01:09:32.798Z,961.32
2022-12-18T01:09:44.803Z,961.32
2022-12-18T01:09:56.808Z,961.32
2022-12-18T01:10:08.811Z,961.33
2022-12-18T01:10:19.779Z,961.33
2022-12-18T01:10:31.781Z,961.33
2022-12-18T01:10:43.801Z,961.33
2022-12-18T01:10:55.801Z,961.33
2022-12-18T01:11:07.802Z,961.33
2022-12-18T01:11:19.796Z,961.34
2022-12-18T01:11:31.814Z,961.34
2022-12-18T01:11:43.821Z,961.35
2022-12-18T01:11:55.737Z,961.35
2022-12-18T01:12:07.742Z,961.35
2022-12-18T01:12:19.753Z,961.35
2022-12-18T01:12:31.761Z,961.36
2022-12-18T01:12:42.736Z,961.36
2022-12-18T01:12:53.796Z,961.36
2022-12-18T01:13:05.799Z,961.36
2022-12-18T01:13:17.799Z,961.37
2022-12-18T01:13:29.828Z,961.37
2022-12-18T01:13:41.058Z,961.37
2022-12-18T01:13:51.780Z,961.38
2022-12-18T01:14:03.784Z,961.38
2022-12-18T01:14:15.798Z,961.39
2022-12-18T01:14:26.762Z,961.39
2022-12-18T01:14:38.757Z,961.39
2022-12-18T01:14:49.731Z,961.39
2022-12-18T01:15:01.790Z,961.39
2022-12-18T01:15:12.735Z,961.39
2022-12-18T01:15:23.782Z,961.40
2022-12-18T01:15:35.780Z,961.40
2022-12-18T01:15:47.780Z,961.40
2022-12-18T01:15:58.814Z,961.40
2022-12-18T01:16:10.803Z,961.40
2022-12-18T01:16:21.828Z,961.40
2022-12-18T01:16:33.801Z,961.41
2022-12-18T01:16:45.791Z,961.41
2022-12-18T01:16:56.764Z,961.41
2022-12-18T01:17:08.766Z,961.41
2022-12-18T01:17:20.775Z,961.41
2022-12-18T01:17:32.781Z,961.41
2022-12-18T01:17:43.739Z,961.41
2022-12-18T01:17:54.792Z,961.42
2022-12-18T01:18:05.768Z,961.42
2022-12-18T01:18:17.775Z,961.42
2022-12-18T01:18:29.772Z,961.42
2022-12-18T01:18:40.771Z,961.42
2022-12-18T01:18:52.776Z,961.42
2022-12-18T01:19:04.787Z,961.42
2022-12-18T01:19:16.802Z,961.42
2022-12-18T01:19:28.804Z,961.42
2022-12-18T01:19:40.810Z,961.42
2022-12-18T01:19:52.814Z,961.42
2022-12-18T01:20:04.818Z,961.42
2022-12-18T01:20:16.796Z,961.42
2022-12-18T01:20:28.801Z,961.42
2022-12-18T01:20:40.726Z,961.41
2022-12-18T01:20:51.804Z,961.41
2022-12-18T01:21:03.804Z,961.41
2022-12-18T01:21:15.800Z,961.41
2022-12-18T01:21:26.775Z,961.41
2022-12-18T01:21:38.782Z,961.41
2022-12-18T01:21:50.777Z,961.41
2022-12-18T01:22:02.782Z,961.41
2022-12-18T01:22:14.794Z,961.41
2022-12-18T01:22:25.764Z,961.41
2022-12-18T01:22:36.726Z,961.41
2022-12-18T01:22:47.817Z,961.40
2022-12-18T01:22:59.724Z,961.40
2022-12-18T01:23:10.816Z,961.40
2022-12-18T01:23:22.726Z,961.40
2022-12-18T01:23:33.772Z,961.39
2022-12-18T01:23:45.784Z,961.39
2022-12-18T01:23:56.737Z,961.38
2022-12-18T01:24:08.742Z,961.38
2022-12-18T01:24:19.783Z,961.37
2022-12-18T01:24:30.785Z,961.37
2022-12-18T01:24:42.795Z,961.37
2022-12-18T01:24:54.801Z,961.36
2022-12-18T01:25:06.794Z,961.36
2022-12-18T01:25:18.793Z,961.36
2022-12-18T01:25:30.794Z,961.35
2022-12-18T01:25:42.798Z,961.35
2022-12-18T01:25:54.808Z,961.35
2022-12-18T01:26:06.741Z,961.34
2022-12-18T01:26:17.778Z,961.34
2022-12-18T01:26:28.740Z,961.34
2022-12-18T01:26:39.785Z,961.34
2022-12-18T01:26:51.775Z,961.33
2022-12-18T01:27:03.798Z,961.32
2022-12-18T01:27:15.796Z,961.32
2022-12-18T01:27:27.801Z,961.32
2022-12-18T01:27:39.757Z,961.32
2022-12-18T01:27:51.755Z,961.31
2022-12-18T01:28:02.758Z,961.30
2022-12-18T01:28:14.754Z,961.30
2022-12-18T01:28:26.760Z,961.30
2022-12-18T01:28:38.764Z,961.29
2022-12-18T01:28:49.740Z,961.29
2022-12-18T01:29:00.781Z,961.29
2022-12-18T01:29:12.796Z,961.29
2022-12-18T01:29:24.804Z,961.28
2022-12-18T01:29:36.753Z,961.29
2022-12-18T01:29:48.762Z,961.28
2022-12-18T01:30:00.767Z,961.27
2022-12-18T01:30:12.776Z,961.27
2022-12-18T01:30:24.783Z,961.28
2022-12-18T01:30:36.785Z,961.28
2022-12-18T01:30:48.787Z,961.29
2022-12-18T01:31:01.627Z,961.29
2022-12-18T01:31:12.818Z,961.29
2022-12-18T01:31:23.842Z,961.30
2022-12-18T01:31:35.844Z,961.30
2022-12-18T01:31:46.807Z,961.30
2022-12-18T01:31:57.788Z,961.30
2022-12-18T01:32:08.793Z,961.31
2022-12-18T01:32:20.746Z,961.31
2022-12-18T01:32:32.764Z,961.32
2022-12-18T01:32:43.820Z,961.32
2022-12-18T01:32:55.748Z,961.32
2022-12-18T01:33:06.806Z,961.32
2022-12-18T01:33:17.772Z,961.33
2022-12-18T01:33:29.775Z,961.33
2022-12-18T01:33:41.164Z,961.34
2022-12-18T01:33:51.748Z,961.34
2022-12-18T01:34:03.764Z,961.35
2022-12-18T01:34:15.775Z,961.35
2022-12-18T01:34:26.756Z,961.35
2022-12-18T01:34:38.740Z,961.36
2022-12-18T01:34:50.766Z,961.36
2022-12-18T01:35:02.779Z,961.36
2022-12-18T01:35:14.777Z,961.37
2022-12-18T01:35:26.790Z,961.37
2022-12-18T01:35:38.795Z,961.37
2022-12-18T01:35:50.816Z,961.37
2022-12-18T01:36:02.704Z,961.37
2022-12-18T01:36:13.802Z,961.37
2022-12-18T01:36:25.723Z,961.38
2022-12-18T01:36:36.802Z,961.38
2022-12-18T01:36:47.762Z,961.39
2022-12-18T01:36:59.754Z,961.39
2022-12-18T01:37:10.751Z,961.39
2022-12-18T01:37:22.763Z,961.39
2022-12-18T01:37:34.770Z,961.39
2022-12-18T01:37:46.776Z,961.39
2022-12-18T01:37:58.781Z,961.40
2022-12-18T01:38:10.807Z,961.40
2022-12-18T01:38:21.752Z,961.41
2022-12-18T01:38:33.754Z,961.41
2022-12-18T01:38:45.770Z,961.41
2022-12-18T01:38:57.782Z,961.41
2022-12-18T01:39:09.804Z,961.42
2022-12-18T01:39:21.821Z,961.42
2022-12-18T01:39:33.798Z,961.42
2022-12-18T01:39:45.805Z,961.43
2022-12-18T01:39:57.803Z,961.43
2022-12-18T01:40:09.819Z,961.44
2022-12-18T01:40:20.775Z,961.44
2022-12-18T01:40:32.788Z,961.44
2022-12-18T01:40:44.834Z,961.45
2022-12-18T01:40:55.782Z,961.45
2022-12-18T01:41:07.787Z,961.45
2022-12-18T01:41:19.801Z,961.46
2022-12-18T01:41:31.750Z,961.47
2022-12-18T01:41:43.763Z,961.47
2022-12-18T01:41:54.738Z,961.47
2022-12-18T01:42:05.783Z,961.48
2022-12-18T01:42:16.755Z,961.49
2022-12-18T01:42:28.754Z,961.49
2022-12-18T01:42:40.755Z,961.49
2022-12-18T01:42:52.755Z,961.50
2022-12-18T01:43:04.759Z,961.51
2022-12-18T01:43:15.821Z,961.51
2022-12-18T01:43:27.782Z,961.52
2022-12-18T01:43:40.093Z,961.53
2022-12-18T01:43:51.784Z,961.53
2022-12-18T01:44:03.798Z,961.53
2022-12-18T01:44:15.772Z,961.54
2022-12-18T01:44:27.788Z,961.54
2022-12-18T01:44:39.791Z,961.55
2022-12-18T01:44:50.783Z,961.55
2022-12-18T01:45:02.779Z,961.55
2022-12-18T01:45:14.801Z,961.56
2022-12-18T01:45:25.914Z,961.56
2022-12-18T01:45:36.812Z,961.56
2022-12-18T01:45:48.797Z,961.57
2022-12-18T01:45:59.820Z,961.57
2022-12-18T01:46:10.762Z,961.57
2022-12-18T01:46:21.828Z,961.57
2022-12-18T01:46:32.734Z,961.58
2022-12-18T01:46:43.810Z,961.58
2022-12-18T01:46:55.818Z,961.58
2022-12-18T01:47:07.819Z,961.59
2022-12-18T01:47:19.752Z,961.59
2022-12-18T01:47:31.762Z,961.59
2022-12-18T01:47:43.757Z,961.59
2022-12-18T01:47:54.728Z,961.60
2022-12-18T01:48:05.785Z,961.60
2022-12-18T01:48:16.743Z,961.60
2022-12-18T01:48:27.759Z,961.60
2022-12-18T01:48:39.762Z,961.60
2022-12-18T01:48:51.751Z,961.60
2022-12-18T01:49:03.783Z,961.60
2022-12-18T01:49:15.778Z,961.60
2022-12-18T01:49:27.754Z,961.60
2022-12-18T01:49:39.752Z,961.60
2022-12-18T01:49:51.731Z,961.60
2022-12-18T01:50:03.758Z,961.60
2022-12-18T01:50:14.726Z,961.60
2022-12-18T01:50:26.752Z,961.60
2022-12-18T01:50:37.740Z,961.59
2022-12-18T01:50:48.798Z,961.59
2022-12-18T01:50:59.764Z,961.59
2022-12-18T01:51:11.777Z,961.59
2022-12-18T01:51:23.774Z,961.58
2022-12-18T01:51:35.781Z,961.57
2022-12-18T01:51:47.786Z,961.57
2022-12-18T01:51:59.781Z,961.56
2022-12-18T01:52:11.783Z,961.56
2022-12-18T01:52:23.784Z,961.55
2022-12-18T01:52:35.786Z,961.55
2022-12-18T01:52:46.744Z,961.54
2022-12-18T01:52:58.751Z,961.54
2022-12-18T01:53:10.759Z,961.53
2022-12-18T01:53:22.773Z,961.53
2022-12-18T01:53:34.872Z,961.52
2022-12-18T01:53:45.772Z,961.52
2022-12-18T01:53:56.814Z,961.51
2022-12-18T01:54:08.823Z,961.51
2022-12-18T01:54:20.737Z,961.51
2022-12-18T01:54:31.786Z,961.51
2022-12-18T01:54:43.801Z,961.50
2022-12-18T01:54:55.813Z,961.51
2022-12-18T01:55:07.816Z,961.51
2022-12-18T01:55:19.778Z,961.51
2022-12-18T01:55:31.796Z,961.50
2022-12-18T01:55:43.792Z,961.50
2022-12-18T01:55:55.799Z,961.50
2022-12-18T01:56:07.806Z,961.51
2022-12-18T01:56:19.816Z,961.51
2022-12-18T01:56:30.772Z,961.51
2022-12-18T01:56:42.775Z,961.51
2022-12-18T01:56:54.776Z,961.52
2022-12-18T01:57:06.763Z,961.52
2022-12-18T01:57:18.781Z,961.52
2022-12-18T01:57:30.743Z,961.53
2022-12-18T01:57:41.784Z,961.53
2022-12-18T01:57:53.820Z,961.53
2022-12-18T01:58:05.732Z,961.54
2022-12-18T01:58:16.727Z,961.54
2022-12-18T01:58:27.802Z,961.54
2022-12-18T01:58:39.753Z,961.54
2022-12-18T01:58:51.767Z,961.54
2022-12-18T01:59:03.776Z,961.54
2022-12-18T01:59:15.776Z,961.55
2022-12-18T01:59:27.783Z,961.55
2022-12-18T01:59:39.788Z,961.56
2022-12-18T01:59:51.818Z,961.56
2022-12-18T02:00:03.815Z,961.56
2022-12-18T02:00:15.733Z,961.57
2022-12-18T02:00:26.730Z,961.57
2022-12-18T02:00:37.796Z,961.57
2022-12-18T02:00:49.857Z,961.57
2022-12-18T02:01:01.856Z,961.58
2022-12-18T02:01:13.924Z,961.58
2022-12-18T02:01:25.944Z,961.58
2022-12-18T02:01:37.912Z,961.58
2022-12-18T02:01:48.868Z,961.59
2022-12-18T02:02:00.956Z,961.59
2022-12-18T02:02:11.808Z,961.60
2022-12-18T02:02:22.849Z,961.60
2022-12-18T02:02:33.859Z,961.61
2022-12-18T02:02:44.890Z,961.61
2022-12-18T02:02:55.860Z,961.61
2022-12-18T02:03:06.855Z,961.62
2022-12-18T02:03:17.825Z,961.62
2022-12-18T02:03:29.854Z,961.62
2022-12-18T02:03:42.155Z,961.63
2022-12-18T02:03:53.750Z,961.62
2022-12-18T02:04:05.752Z,961.63
2022-12-18T02:04:17.767Z,961.63
2022-12-18T02:04:29.765Z,961.64
2022-12-18T02:04:46.341Z,961.64
2022-12-18T02:04:53.770Z,961.64
2022-12-18T02:05:04.756Z,961.64
2022-12-18T02:05:16.761Z,961.64
2022-12-18T02:05:28.776Z,961.64
2022-12-18T02:05:39.744Z,961.63
2022-12-18T02:05:51.761Z,961.63
2022-12-18T02:06:02.763Z,961.63
2022-12-18T02:06:14.751Z,961.62
2022-12-18T02:06:25.752Z,961.62
2022-12-18T02:06:37.754Z,961.62
2022-12-18T02:06:49.760Z,961.62
2022-12-18T02:07:00.730Z,961.62
2022-12-18T02:07:11.725Z,961.61
2022-12-18T02:07:22.796Z,961.61
2022-12-18T02:07:34.804Z,961.60
2022-12-18T02:07:46.801Z,961.60
2022-12-18T02:07:58.806Z,961.59
2022-12-18T02:08:10.813Z,961.59
2022-12-18T02:08:22.823Z,961.58
2022-12-18T02:08:34.723Z,961.58
2022-12-18T02:08:45.788Z,961.57
2022-12-18T02:08:57.801Z,961.56
2022-12-18T02:09:09.801Z,961.55
2022-12-18T02:09:21.814Z,961.55
2022-12-18T02:09:33.811Z,961.54
2022-12-18T02:09:45.818Z,961.54
2022-12-18T02:09:56.780Z,961.53
2022-12-18T02:10:08.792Z,961.53
2022-12-18T02:10:19.775Z,961.52
2022-12-18T02:10:31.777Z,961.51
2022-12-18T02:10:43.794Z,961.51
2022-12-18T02:10:55.807Z,961.50
2022-12-18T02:11:07.814Z,961.49
2022-12-18T02:11:19.822Z,961.49
2022-12-18T02:11:31.754Z,961.48
2022-12-18T02:11:43.760Z,961.47
2022-12-18T02:11:54.819Z,961.46
2022-12-18T02:12:06.824Z,961.45
2022-12-18T02:12:18.820Z,961.45
2022-12-18T02:12:30.817Z,961.44
2022-12-18T02:12:42.916Z,961.43
2022-12-18T02:12:54.823Z,961.42
2022-12-18T02:13:06.815Z,961.42
2022-12-18T02:13:18.773Z,961.41
2022-12-18T02:13:29.766Z,961.41
2022-12-18T02:13:41.951Z,961.40
2022-12-18T02:13:53.745Z,961.40
2022-12-18T02:14:04.791Z,961.40
2022-12-18T02:14:16.789Z,961.39
2022-12-18T02:14:27.753Z,961.39
2022-12-18T02:14:39.767Z,961.39
2022-12-18T02:14:51.776Z,961.38
2022-12-18T02:15:02.764Z,961.38
2022-12-18T02:15:14.770Z,961.38
2022-12-18T02:15:26.773Z,961.38
2022-12-18T02:15:38.776Z,961.38
2022-12-18T02:15:49.749Z,961.37
2022-12-18T02:16:01.749Z,961.37
2022-12-18T02:16:13.814Z,961.37
2022-12-18T02:16:24.871Z,961.37
2022-12-18T02:16:36.841Z,961.37
2022-12-18T02:16:48.856Z,961.37
2022-12-18T02:17:00.849Z,961.37
2022-12-18T02:17:12.820Z,961.37
2022-12-18T02:17:24.737Z,961.37
2022-12-18T02:17:35.763Z,961.37
2022-12-18T02:17:47.786Z,961.38
2022-12-18T02:17:59.796Z,961.37
2022-12-18T02:18:11.803Z,961.37
2022-12-18T02:18:23.822Z,961.37
2022-12-18T02:18:35.724Z,961.37
2022-12-18T02:18:46.801Z,961.37
2022-12-18T02:18:58.801Z,961.37
2022-12-18T02:19:09.776Z,961.36
2022-12-18T02:19:20.818Z,961.36
2022-12-18T02:19:32.735Z,961.36
2022-12-18T02:19:43.792Z,961.36
2022-12-18T02:19:55.794Z,961.35
2022-12-18T02:20:07.806Z,961.35
2022-12-18T02:20:19.807Z,961.36
2022-12-18T02:20:30.773Z,961.36
2022-12-18T02:20:42.774Z,961.35
2022-12-18T02:20:54.808Z,961.35
2022-12-18T02:21:05.745Z,961.34
2022-12-18T02:21:16.739Z,961.34
2022-12-18T02:21:28.760Z,961.34
2022-12-18T02:21:39.726Z,961.33
2022-12-18T02:21:50.775Z,961.33
2022-12-18T02:22:02.760Z,961.33
2022-12-18T02:22:13.821Z,961.33
2022-12-18T02:22:25.732Z,961.33
2022-12-18T02:22:36.795Z,961.33
2022-12-18T02:22:48.795Z,961.33
2022-12-18T02:23:00.804Z,961.33
2022-12-18T02:23:12.796Z,961.33
2022-12-18T02:23:24.801Z,961.32
2022-12-18T02:23:37.250Z,961.32
2022-12-18T02:23:48.792Z,961.32
2022-12-18T02:24:00.799Z,961.32
2022-12-18T02:24:11.768Z,961.31
2022-12-18T02:24:23.767Z,961.31
2022-12-18T02:24:35.766Z,961.31
2022-12-18T02:24:46.760Z,961.31
2022-12-18T02:24:57.742Z,961.31
2022-12-18T02:25:08.781Z,961.31
2022-12-18T02:25:20.783Z,961.31
2022-12-18T02:25:32.780Z,961.31
2022-12-18T02:25:44.786Z,961.30
2022-12-18T02:25:55.757Z,961.31
2022-12-18T02:26:07.760Z,961.31
2022-12-18T02:26:19.755Z,961.31